Sunday, June 17, 2018, 10:05 PM EDT
Back to Local

KOXC, Oxford, Waterbury-oxford Airport

Location: Oxford, CT, United States Lat: 41.483
Local Time: 10:05 PM EDT ( 2:05 GMT) Lon: -73.133
Time Zone: US/Eastern Elev: 725 ft

Show me the last for .
Show Decoded

2018-06-17 21:51 METAR KOXC 180151Z AUTO 16004KT 10SM CLR 22/12 A3009 RMK AO2 SLP196 T02170122 =
2018-06-17 20:51 METAR KOXC 180051Z 15005KT 10SM CLR 23/13 A3009 RMK AO2 SLP194 T02330128 =
2018-06-17 19:51 METAR KOXC 172351Z 16006KT 10SM CLR 24/13 A3009 RMK AO2 SLP195 T02440133 10300
                 20244 51001 =
2018-06-17 18:51 METAR KOXC 172251Z 16006KT 10SM CLR 28/14 A3009 RMK AO2 SLP196 T02780144 =
2018-06-17 17:51 METAR KOXC 172151Z 20006KT 10SM CLR 29/13 A3009 RMK AO2 SLP197 T02890133 =
2018-06-17 16:51 METAR KOXC 172051Z 19008KT 10SM CLR 29/13 A3009 RMK AO2 SLP197 T02890128 55002 =
2018-06-17 15:51 METAR KOXC 171951Z VRB03KT 10SM CLR 30/13 A3008 RMK AO2 SLP195 T03000128 =
2018-06-17 14:51 METAR KOXC 171851Z 24006KT 10SM CLR 29/12 A3009 RMK AO2 SLP196 T02940117 =
2018-06-17 13:51 METAR KOXC 171751Z 00000KT 10SM CLR 28/12 A3009 RMK AO2 SLP197 T02830122 10289
                 20206 58012 =
2018-06-17 12:51 METAR KOXC 171651Z VRB03KT 10SM CLR 28/12 A3010 RMK AO2 SLP202 T02780117 =
2018-06-17 11:51 METAR KOXC 171551Z VRB05KT 10SM CLR 27/13 A3012 =
2018-06-17 10:51 METAR KOXC 171451Z VRB05KT 10SM CLR 27/11 A3013 RMK AO2 SLP209 T02670106 53009 =
2018-06-17 09:51 METAR KOXC 171351Z 00000KT 10SM CLR 26/13 A3011 RMK AO2 SLP205 T02560128 =
2018-06-17 08:51 METAR KOXC 171251Z 00000KT 10SM CLR 24/13 A3011 RMK AO2 SLP203 T02390133 =
2018-06-17 07:51 METAR KOXC 171151Z 31003KT 10SM CLR 21/13 A3010 RMK AO2 SLP200 T02060133 10206
                 20117 51013 =
2018-06-17 06:51 METAR KOXC 171051Z 00000KT 10SM CLR 16/13 A3009 RMK AO2 SLP199 T01610133 =
2018-06-17 05:51 METAR KOXC 170951Z AUTO 00000KT 10SM CLR 13/11 A3007 RMK AO2 SLP192 T01330111 =
2018-06-17 04:51 METAR KOXC 170851Z AUTO 36003KT 10SM CLR 13/10 A3006 RMK AO2 SLP186 T01280100
                 50004 =
2018-06-17 03:51 METAR KOXC 170751Z AUTO 00000KT 10SM CLR 13/11 A3006 RMK AO2 SLP188 T01280111 =
2018-06-17 02:51 METAR KOXC 170651Z AUTO 00000KT 10SM CLR 13/11 A3005 RMK AO2 SLP184 T01330111 =
2018-06-17 00:51 METAR KOXC 170451Z AUTO 00000KT 10SM CLR 14/12 A3006 RMK AO2 SLP185 T01440122
                 402670094 =
2018-06-16 23:51 METAR KOXC 170351Z AUTO 00000KT 10SM CLR 17/12 A3007 RMK AO2 SLP188 T01670122 =
2018-06-16 22:51 METAR KOXC 170251Z AUTO 22004KT 10SM CLR 19/12 A3005 RMK AO2 SLP185 T01890122
                 51014 =

Support USWX by starting your Amazon purchase here.